sensor_id;sensor_type;location;lat;lon;timestamp;P1;durP1;ratioP1;P2;durP2;ratioP2
6665;SDS011;3369;49.906;8.598;2023-04-15T00:00:48;5.47;;;2.97;;
6665;SDS011;3369;49.906;8.598;2023-04-15T00:03:15;4.53;;;2.90;;
6665;SDS011;3369;49.906;8.598;2023-04-15T00:05:41;2.97;;;2.67;;
6665;SDS011;3369;49.906;8.598;2023-04-15T00:08:07;3.40;;;2.60;;
6665;SDS011;3369;49.906;8.598;2023-04-15T00:10:32;2.57;;;2.37;;
6665;SDS011;3369;49.906;8.598;2023-04-15T00:12:58;3.03;;;2.70;;
6665;SDS011;3369;49.906;8.598;2023-04-15T00:15:24;3.53;;;2.10;;
6665;SDS011;3369;49.906;8.598;2023-04-15T00:17:49;3.30;;;2.27;;
6665;SDS011;3369;49.906;8.598;2023-04-15T00:20:16;3.30;;;2.60;;
6665;SDS011;3369;49.906;8.598;2023-04-15T00:22:41;2.27;;;2.00;;
6665;SDS011;3369;49.906;8.598;2023-04-15T00:25:07;5.60;;;2.47;;
6665;SDS011;3369;49.906;8.598;2023-04-15T00:27:33;3.90;;;2.47;;
6665;SDS011;3369;49.906;8.598;2023-04-15T00:29:59;3.07;;;2.50;;
6665;SDS011;3369;49.906;8.598;2023-04-15T00:32:24;4.40;;;2.30;;
6665;SDS011;3369;49.906;8.598;2023-04-15T00:34:50;2.70;;;2.33;;
6665;SDS011;3369;49.906;8.598;2023-04-15T00:37:16;2.23;;;1.90;;
6665;SDS011;3369;49.906;8.598;2023-04-15T00:39:42;4.10;;;2.10;;
6665;SDS011;3369;49.906;8.598;2023-04-15T00:42:07;3.23;;;2.20;;
6665;SDS011;3369;49.906;8.598;2023-04-15T00:44:34;3.07;;;2.10;;
6665;SDS011;3369;49.906;8.598;2023-04-15T00:47:00;5.07;;;2.30;;
6665;SDS011;3369;49.906;8.598;2023-04-15T00:49:26;5.17;;;2.57;;
6665;SDS011;3369;49.906;8.598;2023-04-15T00:51:53;2.70;;;2.23;;
6665;SDS011;3369;49.906;8.598;2023-04-15T00:54:20;3.13;;;2.60;;
6665;SDS011;3369;49.906;8.598;2023-04-15T00:56:46;3.13;;;2.30;;
6665;SDS011;3369;49.906;8.598;2023-04-15T00:59:12;3.67;;;2.57;;
6665;SDS011;3369;49.906;8.598;2023-04-15T01:01:39;3.00;;;2.10;;
6665;SDS011;3369;49.906;8.598;2023-04-15T01:04:05;3.60;;;2.13;;
6665;SDS011;3369;49.906;8.598;2023-04-15T01:06:32;2.43;;;2.23;;
6665;SDS011;3369;49.906;8.598;2023-04-15T01:29:56;4.13;;;2.83;;
6665;SDS011;3369;49.906;8.598;2023-04-15T01:32:22;2.77;;;2.40;;
6665;SDS011;3369;49.906;8.598;2023-04-15T01:34:48;3.97;;;2.80;;
6665;SDS011;3369;49.906;8.598;2023-04-15T01:37:14;3.10;;;2.80;;
6665;SDS011;3369;49.906;8.598;2023-04-15T01:39:40;3.10;;;2.80;;
6665;SDS011;3369;49.906;8.598;2023-04-15T01:42:05;3.93;;;3.07;;
6665;SDS011;3369;49.906;8.598;2023-04-15T01:44:31;2.60;;;2.40;;
6665;SDS011;3369;49.906;8.598;2023-04-15T01:46:57;4.70;;;2.80;;
6665;SDS011;3369;49.906;8.598;2023-04-15T01:49:23;2.67;;;2.33;;
6665;SDS011;3369;49.906;8.598;2023-04-15T01:51:48;2.67;;;2.47;;
6665;SDS011;3369;49.906;8.598;2023-04-15T01:54:14;2.97;;;2.40;;
6665;SDS011;3369;49.906;8.598;2023-04-15T01:56:40;2.60;;;2.40;;
6665;SDS011;3369;49.906;8.598;2023-04-15T01:59:06;2.77;;;2.47;;
6665;SDS011;3369;49.906;8.598;2023-04-15T02:01:32;3.10;;;2.80;;
6665;SDS011;3369;49.906;8.598;2023-04-15T02:03:58;2.93;;;2.73;;
6665;SDS011;3369;49.906;8.598;2023-04-15T02:06:23;4.00;;;2.40;;
6665;SDS011;3369;49.906;8.598;2023-04-15T02:08:49;4.17;;;3.00;;
6665;SDS011;3369;49.906;8.598;2023-04-15T02:11:15;3.60;;;3.10;;
6665;SDS011;3369;49.906;8.598;2023-04-15T02:13:40;3.73;;;2.40;;
6665;SDS011;3369;49.906;8.598;2023-04-15T02:16:16;3.60;;;2.70;;
6665;SDS011;3369;49.906;8.598;2023-04-15T02:18:43;3.10;;;2.50;;
6665;SDS011;3369;49.906;8.598;2023-04-15T02:21:11;5.00;;;2.90;;
6665;SDS011;3369;49.906;8.598;2023-04-15T02:23:37;4.27;;;3.20;;
6665;SDS011;3369;49.906;8.598;2023-04-15T02:26:02;4.20;;;3.03;;
6665;SDS011;3369;49.906;8.598;2023-04-15T02:28:28;3.40;;;2.83;;
6665;SDS011;3369;49.906;8.598;2023-04-15T02:30:53;2.87;;;2.60;;
6665;SDS011;3369;49.906;8.598;2023-04-15T02:33:21;3.40;;;2.87;;
6665;SDS011;3369;49.906;8.598;2023-04-15T02:35:47;2.73;;;2.50;;
6665;SDS011;3369;49.906;8.598;2023-04-15T02:38:13;5.20;;;3.57;;
6665;SDS011;3369;49.906;8.598;2023-04-15T02:40:40;4.27;;;2.83;;
6665;SDS011;3369;49.906;8.598;2023-04-15T02:43:06;2.97;;;2.73;;
6665;SDS011;3369;49.906;8.598;2023-04-15T02:45:32;3.13;;;2.83;;
6665;SDS011;3369;49.906;8.598;2023-04-15T02:47:57;3.73;;;3.07;;
6665;SDS011;3369;49.906;8.598;2023-04-15T02:50:23;3.30;;;3.00;;
6665;SDS011;3369;49.906;8.598;2023-04-15T02:52:49;3.33;;;2.77;;
6665;SDS011;3369;49.906;8.598;2023-04-15T02:55:16;3.50;;;2.60;;
6665;SDS011;3369;49.906;8.598;2023-04-15T02:57:42;3.60;;;2.97;;
6665;SDS011;3369;49.906;8.598;2023-04-15T03:00:08;3.63;;;3.10;;
6665;SDS011;3369;49.906;8.598;2023-04-15T03:02:38;7.30;;;4.13;;
6665;SDS011;3369;49.906;8.598;2023-04-15T03:05:06;6.03;;;3.63;;
6665;SDS011;3369;49.906;8.598;2023-04-15T03:07:35;7.47;;;4.10;;
6665;SDS011;3369;49.906;8.598;2023-04-15T03:10:01;4.43;;;3.80;;
6665;SDS011;3369;49.906;8.598;2023-04-15T03:12:26;4.17;;;3.40;;
6665;SDS011;3369;49.906;8.598;2023-04-15T03:14:53;3.83;;;3.33;;
6665;SDS011;3369;49.906;8.598;2023-04-15T03:17:18;4.57;;;3.40;;
6665;SDS011;3369;49.906;8.598;2023-04-15T03:19:44;3.40;;;3.10;;
6665;SDS011;3369;49.906;8.598;2023-04-15T03:22:10;5.07;;;3.30;;
6665;SDS011;3369;49.906;8.598;2023-04-15T03:24:35;3.97;;;3.67;;
6665;SDS011;3369;49.906;8.598;2023-04-15T03:27:01;3.70;;;3.30;;
6665;SDS011;3369;49.906;8.598;2023-04-15T03:29:27;3.20;;;2.90;;
6665;SDS011;3369;49.906;8.598;2023-04-15T03:31:52;3.57;;;3.23;;
6665;SDS011;3369;49.906;8.598;2023-04-15T03:34:18;4.43;;;3.30;;
6665;SDS011;3369;49.906;8.598;2023-04-15T03:36:45;3.47;;;3.17;;
6665;SDS011;3369;49.906;8.598;2023-04-15T03:39:10;3.37;;;3.07;;
6665;SDS011;3369;49.906;8.598;2023-04-15T03:41:37;3.80;;;3.47;;
6665;SDS011;3369;49.906;8.598;2023-04-15T03:44:02;3.90;;;3.57;;
6665;SDS011;3369;49.906;8.598;2023-04-15T03:46:28;3.83;;;3.30;;
6665;SDS011;3369;49.906;8.598;2023-04-15T03:48:53;3.50;;;3.20;;
6665;SDS011;3369;49.906;8.598;2023-04-15T03:51:19;4.83;;;3.23;;
6665;SDS011;3369;49.906;8.598;2023-04-15T03:53:45;3.30;;;3.00;;
6665;SDS011;3369;49.906;8.598;2023-04-15T03:56:10;3.93;;;3.03;;
6665;SDS011;3369;49.906;8.598;2023-04-15T03:58:36;3.60;;;3.30;;
6665;SDS011;3369;49.906;8.598;2023-04-15T04:01:02;3.10;;;2.80;;
6665;SDS011;3369;49.906;8.598;2023-04-15T04:03:27;4.20;;;3.10;;
6665;SDS011;3369;49.906;8.598;2023-04-15T04:05:53;3.70;;;3.13;;
6665;SDS011;3369;49.906;8.598;2023-04-15T04:08:18;3.63;;;3.27;;
6665;SDS011;3369;49.906;8.598;2023-04-15T04:10:45;3.93;;;3.20;;
6665;SDS011;3369;49.906;8.598;2023-04-15T04:13:11;5.07;;;3.40;;
6665;SDS011;3369;49.906;8.598;2023-04-15T04:15:37;3.30;;;3.00;;
6665;SDS011;3369;49.906;8.598;2023-04-15T04:18:02;3.77;;;3.33;;
6665;SDS011;3369;49.906;8.598;2023-04-15T04:20:28;3.60;;;3.30;;
6665;SDS011;3369;49.906;8.598;2023-04-15T04:22:56;3.97;;;3.30;;
6665;SDS011;3369;49.906;8.598;2023-04-15T04:25:21;3.33;;;3.00;;
6665;SDS011;3369;49.906;8.598;2023-04-15T04:27:48;3.77;;;3.47;;
6665;SDS011;3369;49.906;8.598;2023-04-15T04:30:14;3.90;;;3.53;;
6665;SDS011;3369;49.906;8.598;2023-04-15T04:32:40;3.77;;;3.47;;
6665;SDS011;3369;49.906;8.598;2023-04-15T04:35:05;3.97;;;3.67;;
6665;SDS011;3369;49.906;8.598;2023-04-15T04:37:31;3.37;;;3.07;;
6665;SDS011;3369;49.906;8.598;2023-04-15T04:39:57;4.50;;;3.90;;
6665;SDS011;3369;49.906;8.598;2023-04-15T04:42:22;6.10;;;4.10;;
6665;SDS011;3369;49.906;8.598;2023-04-15T04:44:48;3.97;;;3.57;;
6665;SDS011;3369;49.906;8.598;2023-04-15T04:47:13;7.70;;;4.50;;
6665;SDS011;3369;49.906;8.598;2023-04-15T04:49:39;4.90;;;4.30;;
6665;SDS011;3369;49.906;8.598;2023-04-15T04:52:05;5.53;;;4.23;;
6665;SDS011;3369;49.906;8.598;2023-04-15T04:54:31;5.60;;;3.90;;
6665;SDS011;3369;49.906;8.598;2023-04-15T04:56:57;5.97;;;4.27;;
6665;SDS011;3369;49.906;8.598;2023-04-15T04:59:23;4.57;;;4.00;;
6665;SDS011;3369;49.906;8.598;2023-04-15T05:01:48;5.87;;;3.77;;
6665;SDS011;3369;49.906;8.598;2023-04-15T05:04:14;4.10;;;3.70;;
6665;SDS011;3369;49.906;8.598;2023-04-15T05:06:40;5.33;;;3.90;;
6665;SDS011;3369;49.906;8.598;2023-04-15T05:09:05;3.77;;;3.40;;
6665;SDS011;3369;49.906;8.598;2023-04-15T05:11:31;4.10;;;3.77;;
6665;SDS011;3369;49.906;8.598;2023-04-15T05:13:57;3.93;;;3.53;;
6665;SDS011;3369;49.906;8.598;2023-04-15T05:16:25;3.60;;;3.30;;
6665;SDS011;3369;49.906;8.598;2023-04-15T05:18:51;5.37;;;3.83;;
6665;SDS011;3369;49.906;8.598;2023-04-15T05:21:16;4.20;;;3.80;;
6665;SDS011;3369;49.906;8.598;2023-04-15T05:23:42;4.20;;;3.80;;
6665;SDS011;3369;49.906;8.598;2023-04-15T05:26:08;3.80;;;3.47;;
6665;SDS011;3369;49.906;8.598;2023-04-15T05:28:33;3.80;;;3.47;;
6665;SDS011;3369;49.906;8.598;2023-04-15T05:30:59;4.87;;;3.83;;
6665;SDS011;3369;49.906;8.598;2023-04-15T05:33:25;5.73;;;3.87;;
6665;SDS011;3369;49.906;8.598;2023-04-15T05:35:51;3.93;;;3.50;;
6665;SDS011;3369;49.906;8.598;2023-04-15T05:38:17;4.07;;;3.60;;
6665;SDS011;3369;49.906;8.598;2023-04-15T05:40:42;3.47;;;3.17;;
6665;SDS011;3369;49.906;8.598;2023-04-15T05:43:08;4.10;;;3.70;;
6665;SDS011;3369;49.906;8.598;2023-04-15T05:45:34;5.90;;;3.77;;
6665;SDS011;3369;49.906;8.598;2023-04-15T05:47:59;4.90;;;3.50;;
6665;SDS011;3369;49.906;8.598;2023-04-15T05:50:25;4.33;;;3.67;;
6665;SDS011;3369;49.906;8.598;2023-04-15T05:52:51;3.27;;;3.07;;
6665;SDS011;3369;49.906;8.598;2023-04-15T05:55:16;3.30;;;3.00;;
6665;SDS011;3369;49.906;8.598;2023-04-15T05:57:42;5.13;;;3.60;;
6665;SDS011;3369;49.906;8.598;2023-04-15T06:00:08;3.73;;;3.10;;
6665;SDS011;3369;49.906;8.598;2023-04-15T06:02:34;3.60;;;3.30;;
6665;SDS011;3369;49.906;8.598;2023-04-15T06:05:00;4.13;;;3.67;;
6665;SDS011;3369;49.906;8.598;2023-04-15T06:07:26;4.30;;;3.83;;
6665;SDS011;3369;49.906;8.598;2023-04-15T06:09:51;4.63;;;4.10;;
6665;SDS011;3369;49.906;8.598;2023-04-15T06:12:17;3.10;;;2.90;;
6665;SDS011;3369;49.906;8.598;2023-04-15T06:14:42;3.67;;;3.20;;
6665;SDS011;3369;49.906;8.598;2023-04-15T06:17:08;3.77;;;3.40;;
6665;SDS011;3369;49.906;8.598;2023-04-15T06:19:34;3.70;;;3.20;;
6665;SDS011;3369;49.906;8.598;2023-04-15T06:22:00;4.03;;;3.40;;
6665;SDS011;3369;49.906;8.598;2023-04-15T06:24:27;3.87;;;3.50;;
6665;SDS011;3369;49.906;8.598;2023-04-15T06:26:53;3.77;;;3.27;;
6665;SDS011;3369;49.906;8.598;2023-04-15T06:29:18;4.87;;;4.07;;
6665;SDS011;3369;49.906;8.598;2023-04-15T06:31:46;4.07;;;3.47;;
6665;SDS011;3369;49.906;8.598;2023-04-15T06:34:12;4.40;;;3.90;;
6665;SDS011;3369;49.906;8.598;2023-04-15T06:36:37;4.23;;;3.70;;
6665;SDS011;3369;49.906;8.598;2023-04-15T06:39:03;4.70;;;4.07;;
6665;SDS011;3369;49.906;8.598;2023-04-15T06:41:28;6.13;;;3.97;;
6665;SDS011;3369;49.906;8.598;2023-04-15T06:43:54;4.90;;;3.80;;
6665;SDS011;3369;49.906;8.598;2023-04-15T06:46:20;4.77;;;4.27;;
6665;SDS011;3369;49.906;8.598;2023-04-15T06:48:46;4.70;;;4.20;;
6665;SDS011;3369;49.906;8.598;2023-04-15T07:13:34;5.47;;;4.97;;
6665;SDS011;3369;49.906;8.598;2023-04-15T07:15:59;6.73;;;5.00;;
6665;SDS011;3369;49.906;8.598;2023-04-15T07:18:25;6.07;;;5.33;;
6665;SDS011;3369;49.906;8.598;2023-04-15T07:20:50;5.10;;;4.60;;
6665;SDS011;3369;49.906;8.598;2023-04-15T07:23:16;6.60;;;4.97;;
6665;SDS011;3369;49.906;8.598;2023-04-15T07:25:42;5.20;;;4.70;;
6665;SDS011;3369;49.906;8.598;2023-04-15T07:28:08;5.97;;;4.50;;
6665;SDS011;3369;49.906;8.598;2023-04-15T07:30:33;4.43;;;4.03;;
6665;SDS011;3369;49.906;8.598;2023-04-15T07:33:00;6.17;;;5.57;;
6665;SDS011;3369;49.906;8.598;2023-04-15T07:35:26;6.07;;;5.23;;
6665;SDS011;3369;49.906;8.598;2023-04-15T07:37:52;5.70;;;5.20;;
6665;SDS011;3369;49.906;8.598;2023-04-15T07:40:17;6.23;;;5.00;;
6665;SDS011;3369;49.906;8.598;2023-04-15T07:42:43;5.87;;;4.73;;
6665;SDS011;3369;49.906;8.598;2023-04-15T07:45:09;5.30;;;4.60;;
6665;SDS011;3369;49.906;8.598;2023-04-15T07:47:36;5.90;;;4.93;;
6665;SDS011;3369;49.906;8.598;2023-04-15T07:50:02;4.87;;;4.37;;
6665;SDS011;3369;49.906;8.598;2023-04-15T07:52:28;5.20;;;4.70;;
6665;SDS011;3369;49.906;8.598;2023-04-15T07:54:53;5.23;;;4.13;;
6665;SDS011;3369;49.906;8.598;2023-04-15T07:57:19;6.30;;;5.43;;
6665;SDS011;3369;49.906;8.598;2023-04-15T07:59:45;9.07;;;6.17;;
6665;SDS011;3369;49.906;8.598;2023-04-15T08:02:10;6.50;;;5.80;;
6665;SDS011;3369;49.906;8.598;2023-04-15T08:04:36;5.80;;;5.20;;
6665;SDS011;3369;49.906;8.598;2023-04-15T08:07:02;7.93;;;6.00;;
6665;SDS011;3369;49.906;8.598;2023-04-15T08:09:28;7.07;;;5.33;;
6665;SDS011;3369;49.906;8.598;2023-04-15T08:11:54;5.20;;;4.70;;
6665;SDS011;3369;49.906;8.598;2023-04-15T08:14:21;6.47;;;5.83;;
6665;SDS011;3369;49.906;8.598;2023-04-15T08:16:46;6.37;;;5.47;;
6665;SDS011;3369;49.906;8.598;2023-04-15T08:19:12;6.13;;;5.53;;
6665;SDS011;3369;49.906;8.598;2023-04-15T08:21:38;5.03;;;4.60;;
6665;SDS011;3369;49.906;8.598;2023-04-15T08:24:05;6.97;;;5.40;;
6665;SDS011;3369;49.906;8.598;2023-04-15T08:26:31;6.03;;;4.80;;
6665;SDS011;3369;49.906;8.598;2023-04-15T08:28:56;4.97;;;4.47;;
6665;SDS011;3369;49.906;8.598;2023-04-15T08:31:22;5.07;;;4.57;;
6665;SDS011;3369;49.906;8.598;2023-04-15T08:33:48;6.97;;;6.03;;
6665;SDS011;3369;49.906;8.598;2023-04-15T08:36:16;5.43;;;4.93;;
6665;SDS011;3369;49.906;8.598;2023-04-15T08:38:43;5.43;;;4.93;;
6665;SDS011;3369;49.906;8.598;2023-04-15T08:41:10;5.70;;;5.20;;
6665;SDS011;3369;49.906;8.598;2023-04-15T08:43:57;5.47;;;4.97;;
6665;SDS011;3369;49.906;8.598;2023-04-15T08:46:27;5.20;;;4.70;;
6665;SDS011;3369;49.906;8.598;2023-04-15T08:48:55;4.57;;;4.17;;
6665;SDS011;3369;49.906;8.598;2023-04-15T08:51:22;4.17;;;3.70;;
6665;SDS011;3369;49.906;8.598;2023-04-15T08:53:49;4.10;;;3.80;;
6665;SDS011;3369;49.906;8.598;2023-04-15T08:56:15;3.90;;;3.50;;
6665;SDS011;3369;49.906;8.598;2023-04-15T08:58:42;4.93;;;3.60;;
6665;SDS011;3369;49.906;8.598;2023-04-15T09:01:09;3.63;;;3.33;;
6665;SDS011;3369;49.906;8.598;2023-04-15T09:03:36;4.40;;;3.73;;
6665;SDS011;3369;49.906;8.598;2023-04-15T09:06:03;4.57;;;3.47;;
6665;SDS011;3369;49.906;8.598;2023-04-15T09:08:30;3.57;;;3.03;;
6665;SDS011;3369;49.906;8.598;2023-04-15T09:10:55;2.90;;;2.70;;
6665;SDS011;3369;49.906;8.598;2023-04-15T09:13:21;4.17;;;3.33;;
6665;SDS011;3369;49.906;8.598;2023-04-15T09:15:47;3.17;;;2.17;;
6665;SDS011;3369;49.906;8.598;2023-04-15T09:18:12;3.37;;;2.77;;
6665;SDS011;3369;49.906;8.598;2023-04-15T09:20:50;3.77;;;3.33;;
6665;SDS011;3369;49.906;8.598;2023-04-15T09:23:17;2.73;;;2.20;;
6665;SDS011;3369;49.906;8.598;2023-04-15T09:25:43;2.40;;;2.20;;
6665;SDS011;3369;49.906;8.598;2023-04-15T09:28:10;2.30;;;2.10;;
6665;SDS011;3369;49.906;8.598;2023-04-15T09:30:36;2.30;;;2.10;;
6665;SDS011;3369;49.906;8.598;2023-04-15T09:33:02;2.30;;;2.13;;
6665;SDS011;3369;49.906;8.598;2023-04-15T09:35:32;2.70;;;2.40;;
6665;SDS011;3369;49.906;8.598;2023-04-15T09:38:07;2.17;;;1.90;;
6665;SDS011;3369;49.906;8.598;2023-04-15T09:40:35;1.80;;;1.70;;
6665;SDS011;3369;49.906;8.598;2023-04-15T09:43:02;1.63;;;1.53;;
6665;SDS011;3369;49.906;8.598;2023-04-15T09:45:29;2.00;;;1.30;;
6665;SDS011;3369;49.906;8.598;2023-04-15T09:47:59;1.67;;;1.53;;
6665;SDS011;3369;49.906;8.598;2023-04-15T09:50:41;2.00;;;1.77;;
6665;SDS011;3369;49.906;8.598;2023-04-15T09:53:10;3.23;;;1.50;;
6665;SDS011;3369;49.906;8.598;2023-04-15T09:55:39;1.20;;;1.20;;
6665;SDS011;3369;49.906;8.598;2023-04-15T10:01:03;4.67;;;1.67;;
6665;SDS011;3369;49.906;8.598;2023-04-15T10:03:31;1.87;;;1.77;;
6665;SDS011;3369;49.906;8.598;2023-04-15T10:05:59;2.17;;;1.80;;
6665;SDS011;3369;49.906;8.598;2023-04-15T10:08:27;1.35;;;1.25;;
6665;SDS011;3369;49.906;8.598;2023-04-15T10:10:54;2.33;;;1.60;;
6665;SDS011;3369;49.906;8.598;2023-04-15T10:13:25;1.67;;;1.57;;
6665;SDS011;3369;49.906;8.598;2023-04-15T10:18:24;4.83;;;1.80;;
6665;SDS011;3369;49.906;8.598;2023-04-15T10:20:52;1.57;;;1.47;;
6665;SDS011;3369;49.906;8.598;2023-04-15T10:23:19;2.30;;;2.03;;
6665;SDS011;3369;49.906;8.598;2023-04-15T10:25:47;2.03;;;1.93;;
6665;SDS011;3369;49.906;8.598;2023-04-15T10:28:14;2.10;;;1.67;;
6665;SDS011;3369;49.906;8.598;2023-04-15T10:30:41;1.50;;;1.40;;
6665;SDS011;3369;49.906;8.598;2023-04-15T10:33:07;3.60;;;2.37;;
6665;SDS011;3369;49.906;8.598;2023-04-15T10:35:35;2.10;;;1.93;;
6665;SDS011;3369;49.906;8.598;2023-04-15T10:38:01;2.33;;;1.90;;
6665;SDS011;3369;49.906;8.598;2023-04-15T10:42:53;1.63;;;1.50;;
6665;SDS011;3369;49.906;8.598;2023-04-15T10:45:20;1.80;;;1.70;;
6665;SDS011;3369;49.906;8.598;2023-04-15T10:47:50;2.00;;;1.80;;
6665;SDS011;3369;49.906;8.598;2023-04-15T10:50:18;1.67;;;1.57;;
6665;SDS011;3369;49.906;8.598;2023-04-15T10:52:44;1.60;;;1.50;;
6665;SDS011;3369;49.906;8.598;2023-04-15T10:55:13;1.73;;;1.50;;
6665;SDS011;3369;49.906;8.598;2023-04-15T10:57:43;1.40;;;1.30;;
6665;SDS011;3369;49.906;8.598;2023-04-15T11:00:13;1.50;;;1.40;;
6665;SDS011;3369;49.906;8.598;2023-04-15T11:08:15;1.50;;;1.40;;
6665;SDS011;3369;49.906;8.598;2023-04-15T11:15:39;1.57;;;1.47;;
6665;SDS011;3369;49.906;8.598;2023-04-15T11:18:10;1.30;;;1.20;;
6665;SDS011;3369;49.906;8.598;2023-04-15T11:20:43;1.60;;;1.50;;
6665;SDS011;3369;49.906;8.598;2023-04-15T11:23:16;1.40;;;1.30;;
6665;SDS011;3369;49.906;8.598;2023-04-15T11:25:53;1.57;;;1.47;;
6665;SDS011;3369;49.906;8.598;2023-04-15T11:28:19;1.63;;;1.33;;
6665;SDS011;3369;49.906;8.598;2023-04-15T11:30:45;1.50;;;1.40;;
6665;SDS011;3369;49.906;8.598;2023-04-15T11:33:11;1.53;;;1.40;;
6665;SDS011;3369;49.906;8.598;2023-04-15T11:35:38;1.83;;;1.20;;
6665;SDS011;3369;49.906;8.598;2023-04-15T11:38:09;1.30;;;1.20;;
6665;SDS011;3369;49.906;8.598;2023-04-15T11:40:38;1.80;;;1.53;;
6665;SDS011;3369;49.906;8.598;2023-04-15T11:45:36;1.27;;;1.17;;
6665;SDS011;3369;49.906;8.598;2023-04-15T11:48:06;1.00;;;1.00;;
6665;SDS011;3369;49.906;8.598;2023-04-15T11:50:37;1.10;;;1.00;;
6665;SDS011;3369;49.906;8.598;2023-04-15T11:53:07;1.03;;;1.00;;
6665;SDS011;3369;49.906;8.598;2023-04-15T12:00:40;1.17;;;0.80;;
6665;SDS011;3369;49.906;8.598;2023-04-15T12:03:35;1.07;;;0.83;;
6665;SDS011;3369;49.906;8.598;2023-04-15T12:06:06;0.70;;;0.70;;
6665;SDS011;3369;49.906;8.598;2023-04-15T12:13:52;0.80;;;0.80;;
6665;SDS011;3369;49.906;8.598;2023-04-15T12:16:19;1.43;;;0.90;;
6665;SDS011;3369;49.906;8.598;2023-04-15T12:18:46;0.90;;;0.77;;
6665;SDS011;3369;49.906;8.598;2023-04-15T12:21:14;0.80;;;0.80;;
6665;SDS011;3369;49.906;8.598;2023-04-15T12:26:24;1.20;;;1.10;;
6665;SDS011;3369;49.906;8.598;2023-04-15T12:28:59;0.77;;;0.77;;
6665;SDS011;3369;49.906;8.598;2023-04-15T12:31:26;1.50;;;0.90;;
6665;SDS011;3369;49.906;8.598;2023-04-15T12:33:54;0.70;;;0.70;;
6665;SDS011;3369;49.906;8.598;2023-04-15T12:36:20;1.13;;;1.03;;
6665;SDS011;3369;49.906;8.598;2023-04-15T12:38:47;2.67;;;1.80;;
6665;SDS011;3369;49.906;8.598;2023-04-15T12:41:12;1.67;;;1.57;;
6665;SDS011;3369;49.906;8.598;2023-04-15T12:43:38;2.13;;;2.03;;
6665;SDS011;3369;49.906;8.598;2023-04-15T12:46:04;2.10;;;2.00;;
6665;SDS011;3369;49.906;8.598;2023-04-15T12:48:30;2.50;;;2.30;;
6665;SDS011;3369;49.906;8.598;2023-04-15T12:50:57;2.17;;;1.97;;
6665;SDS011;3369;49.906;8.598;2023-04-15T12:53:22;2.20;;;2.10;;
6665;SDS011;3369;49.906;8.598;2023-04-15T12:55:48;2.67;;;2.40;;
6665;SDS011;3369;49.906;8.598;2023-04-15T12:58:14;1.53;;;1.43;;
6665;SDS011;3369;49.906;8.598;2023-04-15T13:00:39;1.50;;;1.40;;
6665;SDS011;3369;49.906;8.598;2023-04-15T13:03:05;1.47;;;1.37;;
6665;SDS011;3369;49.906;8.598;2023-04-15T13:05:30;1.90;;;1.30;;
6665;SDS011;3369;49.906;8.598;2023-04-15T13:07:56;1.10;;;1.10;;
6665;SDS011;3369;49.906;8.598;2023-04-15T13:30:15;1.00;;;1.00;;
6665;SDS011;3369;49.906;8.598;2023-04-15T13:32:41;1.00;;;1.00;;
6665;SDS011;3369;49.906;8.598;2023-04-15T13:35:06;1.10;;;0.90;;
6665;SDS011;3369;49.906;8.598;2023-04-15T13:37:32;1.00;;;1.00;;
6665;SDS011;3369;49.906;8.598;2023-04-15T13:39:58;0.90;;;0.90;;
6665;SDS011;3369;49.906;8.598;2023-04-15T13:42:24;0.80;;;0.80;;
6665;SDS011;3369;49.906;8.598;2023-04-15T13:44:51;0.82;;;0.68;;
6665;SDS011;3369;49.906;8.598;2023-04-15T13:47:20;0.70;;;0.70;;
6665;SDS011;3369;49.906;8.598;2023-04-15T13:49:45;0.70;;;0.70;;
6665;SDS011;3369;49.906;8.598;2023-04-15T13:52:12;0.80;;;0.80;;
6665;SDS011;3369;49.906;8.598;2023-04-15T13:54:37;0.60;;;0.60;;
6665;SDS011;3369;49.906;8.598;2023-04-15T13:57:04;0.60;;;0.60;;
6665;SDS011;3369;49.906;8.598;2023-04-15T13:59:30;0.57;;;0.57;;
6665;SDS011;3369;49.906;8.598;2023-04-15T14:01:57;0.60;;;0.60;;
6665;SDS011;3369;49.906;8.598;2023-04-15T14:04:22;0.60;;;0.60;;
6665;SDS011;3369;49.906;8.598;2023-04-15T14:06:48;0.50;;;0.50;;
6665;SDS011;3369;49.906;8.598;2023-04-15T14:09:14;0.55;;;0.55;;
6665;SDS011;3369;49.906;8.598;2023-04-15T14:11:40;0.70;;;0.70;;
6665;SDS011;3369;49.906;8.598;2023-04-15T14:14:06;0.77;;;0.77;;
6665;SDS011;3369;49.906;8.598;2023-04-15T14:16:32;0.60;;;0.60;;
6665;SDS011;3369;49.906;8.598;2023-04-15T14:18:58;0.50;;;0.50;;
6665;SDS011;3369;49.906;8.598;2023-04-15T14:21:24;0.50;;;0.50;;
6665;SDS011;3369;49.906;8.598;2023-04-15T14:23:54;0.52;;;0.52;;
6665;SDS011;3369;49.906;8.598;2023-04-15T14:26:19;0.60;;;0.60;;
6665;SDS011;3369;49.906;8.598;2023-04-15T14:28:45;0.50;;;0.50;;
6665;SDS011;3369;49.906;8.598;2023-04-15T14:31:12;1.20;;;1.10;;
6665;SDS011;3369;49.906;8.598;2023-04-15T14:33:38;0.70;;;0.70;;
6665;SDS011;3369;49.906;8.598;2023-04-15T14:36:04;0.70;;;0.70;;
6665;SDS011;3369;49.906;8.598;2023-04-15T14:38:30;0.70;;;0.70;;
6665;SDS011;3369;49.906;8.598;2023-04-15T14:40:57;0.60;;;0.60;;
6665;SDS011;3369;49.906;8.598;2023-04-15T14:43:23;0.60;;;0.60;;
6665;SDS011;3369;49.906;8.598;2023-04-15T14:45:48;0.50;;;0.50;;
6665;SDS011;3369;49.906;8.598;2023-04-15T14:48:15;0.60;;;0.60;;
6665;SDS011;3369;49.906;8.598;2023-04-15T14:50:41;0.50;;;0.50;;
6665;SDS011;3369;49.906;8.598;2023-04-15T14:53:07;0.60;;;0.60;;
6665;SDS011;3369;49.906;8.598;2023-04-15T14:55:33;0.60;;;0.60;;
6665;SDS011;3369;49.906;8.598;2023-04-15T14:57:59;0.60;;;0.60;;
6665;SDS011;3369;49.906;8.598;2023-04-15T15:00:26;0.60;;;0.60;;
6665;SDS011;3369;49.906;8.598;2023-04-15T15:02:52;0.70;;;0.70;;
6665;SDS011;3369;49.906;8.598;2023-04-15T15:05:17;1.08;;;0.80;;
6665;SDS011;3369;49.906;8.598;2023-04-15T15:07:43;0.60;;;0.60;;
6665;SDS011;3369;49.906;8.598;2023-04-15T15:10:09;0.68;;;0.68;;
6665;SDS011;3369;49.906;8.598;2023-04-15T15:12:34;0.80;;;0.80;;
6665;SDS011;3369;49.906;8.598;2023-04-15T15:15:01;0.80;;;0.80;;
6665;SDS011;3369;49.906;8.598;2023-04-15T15:17:28;0.80;;;0.80;;
6665;SDS011;3369;49.906;8.598;2023-04-15T15:19:54;0.80;;;0.80;;
6665;SDS011;3369;49.906;8.598;2023-04-15T15:22:20;0.90;;;0.90;;
6665;SDS011;3369;49.906;8.598;2023-04-15T15:24:46;1.27;;;0.90;;
6665;SDS011;3369;49.906;8.598;2023-04-15T15:27:11;0.95;;;0.80;;
6665;SDS011;3369;49.906;8.598;2023-04-15T15:29:37;0.70;;;0.70;;
6665;SDS011;3369;49.906;8.598;2023-04-15T15:32:03;0.77;;;0.77;;
6665;SDS011;3369;49.906;8.598;2023-04-15T15:34:29;0.90;;;0.90;;
6665;SDS011;3369;49.906;8.598;2023-04-15T15:36:55;0.80;;;0.80;;
6665;SDS011;3369;49.906;8.598;2023-04-15T15:39:21;1.00;;;1.00;;
6665;SDS011;3369;49.906;8.598;2023-04-15T15:41:47;0.80;;;0.80;;
6665;SDS011;3369;49.906;8.598;2023-04-15T15:44:13;0.80;;;0.80;;
6665;SDS011;3369;49.906;8.598;2023-04-15T15:46:39;0.80;;;0.80;;
6665;SDS011;3369;49.906;8.598;2023-04-15T15:49:05;0.70;;;0.70;;
6665;SDS011;3369;49.906;8.598;2023-04-15T15:51:31;0.60;;;0.60;;
6665;SDS011;3369;49.906;8.598;2023-04-15T15:53:57;0.60;;;0.60;;
6665;SDS011;3369;49.906;8.598;2023-04-15T15:56:22;0.75;;;0.75;;
6665;SDS011;3369;49.906;8.598;2023-04-15T15:58:48;0.88;;;0.88;;
6665;SDS011;3369;49.906;8.598;2023-04-15T16:01:14;0.80;;;0.80;;
6665;SDS011;3369;49.906;8.598;2023-04-15T16:03:40;1.60;;;0.70;;
6665;SDS011;3369;49.906;8.598;2023-04-15T16:06:05;0.70;;;0.70;;
6665;SDS011;3369;49.906;8.598;2023-04-15T16:08:31;0.80;;;0.80;;
6665;SDS011;3369;49.906;8.598;2023-04-15T16:10:57;0.70;;;0.70;;
6665;SDS011;3369;49.906;8.598;2023-04-15T16:13:22;0.60;;;0.60;;
6665;SDS011;3369;49.906;8.598;2023-04-15T16:15:48;0.70;;;0.70;;
6665;SDS011;3369;49.906;8.598;2023-04-15T16:18:14;0.85;;;0.85;;
6665;SDS011;3369;49.906;8.598;2023-04-15T16:20:40;1.00;;;1.00;;
6665;SDS011;3369;49.906;8.598;2023-04-15T16:23:15;0.83;;;0.83;;
6665;SDS011;3369;49.906;8.598;2023-04-15T16:25:41;0.90;;;0.90;;
6665;SDS011;3369;49.906;8.598;2023-04-15T16:28:08;0.80;;;0.80;;
6665;SDS011;3369;49.906;8.598;2023-04-15T16:30:35;1.20;;;1.20;;
6665;SDS011;3369;49.906;8.598;2023-04-15T16:33:04;1.10;;;1.10;;
6665;SDS011;3369;49.906;8.598;2023-04-15T16:35:30;1.10;;;1.10;;
6665;SDS011;3369;49.906;8.598;2023-04-15T16:37:56;1.30;;;1.20;;
6665;SDS011;3369;49.906;8.598;2023-04-15T16:40:22;1.80;;;1.70;;
6665;SDS011;3369;49.906;8.598;2023-04-15T16:42:49;1.52;;;1.52;;
6665;SDS011;3369;49.906;8.598;2023-04-15T16:45:15;1.65;;;1.55;;
6665;SDS011;3369;49.906;8.598;2023-04-15T16:47:40;1.60;;;1.50;;